ADDS METAR Data INFO
IDs: Format: Raw Decoded Include TAF

Data at: 2033 UTC 22 Feb 2018

KFAR 221953Z 16011KT 10SM CLR M06/M10 A3040 RMK AO2 SLP315 T10561100
KFAR 221853Z 17016KT 10SM CLR M07/M11 A3041 RMK AO2 SLP319 T10671111
KFAR 221753Z 17015KT 10SM OVC041 M08/M13 A3044 RMK AO2 SLP330 T10831128 11083 21144 58008
KFAR 221653Z 16012KT 10SM CLR M10/M14 A3045 RMK AO2 SLP334 T11001144
KFAR 221553Z 17015KT 10SM CLR M12/M16 A3046 RMK AO2 SLP339 T11171161
KFAR 221453Z 17012KT 10SM CLR M13/M17 A3046 RMK AO2 SLP339 T11331172 53002
KFAR 221353Z 17015KT 10SM CLR M14/M17 A3046 RMK AO2 SLP338 T11391172
KFAR 221253Z 17014G20KT 10SM CLR M14/M18 A3045 RMK AO2 SLP337 T11441183
KFAR 221153Z 17012KT 10SM CLR M14/M18 A3046 RMK AO2 SLP336 T11441183 11139 21178 56016
KFAR 221053Z 17009KT 10SM CLR M14/M18 A3047 RMK AO2 SLP341 T11441183
KFAR 220953Z 15009KT 10SM CLR M15/M18 A3047 RMK AO2 SLP343 T11501183
KFAR 220853Z 14010KT 10SM CLR M16/M19 A3050 RMK AO2 SLP354 T11561194 58013
KFAR 220753Z 15007KT 10SM CLR M17/M20 A3053 RMK AO2 SLP365 T11671200
KFAR 220653Z 14005KT 10SM CLR M17/M19 A3053 RMK AO2 SLP365 T11671194
KFAR 220553Z 15005KT 10SM CLR M17/M19 A3054 RMK AO2 SLP369 T11671194 11111 21167 411061206 58002
KFAR 220453Z 16006KT 10SM FEW090 M16/M19 A3055 RMK AO2 SLP373 T11611194
KFAR 220353Z 18008KT 10SM CLR M16/M19 A3055 RMK AO2 SLP374 T11561194
KFAR 212353Z 17008KT 10SM CLR M11/M17 A3053 RMK AO2 SLP365 T11111167 11106 21144 58003
KFAR 212253Z 18012KT 10SM CLR M11/M17 A3054 RMK AO2 SLP368 T11061172
KFAR 212153Z 18011KT 10SM CLR M11/M17 A3054 RMK AO2 SLP367 T11061172
KFAR 212053Z 20013KT 10SM CLR M11/M18 A3054 RMK AO2 SLP368 T11111178 51002
KFAR 211953Z 19009KT 10SM CLR M12/M18 A3054 RMK AO2 SLP366 T11221183
KFAR 211853Z 20008KT 10SM CLR M14/M19 A3055 RMK AO2 SLP371 T11391189
KFAR 211753Z 21009KT 10SM CLR M14/M20 A3054 RMK AO2 SLP367 T11441200 11144 21206 51019
KFAR 211653Z 20009KT 10SM CLR M17/M21 A3052 RMK AO2 SLP361 T11671211
KFAR 211553Z 20010KT 10SM CLR M18/M22 A3050 RMK AO2 SLP356 T11781222
KFAR 211453Z 21009KT 10SM CLR M19/M23 A3048 RMK AO2 SLP348 T11891233 51019
KFAR 211353Z 20008KT 10SM CLR M21/M24 A3047 RMK AO2 SLP346 T12061239
KFAR 211253Z 20010KT 10SM CLR M20/M24 A3044 RMK AO2 SLP336 T12001239